Time;durP1;ratioP1;P1;durP2;ratioP2;P2;SDS_P1;SDS_P2;PMS_P1;PMS_P2;Temp;Humidity;BMP_temperature;BMP_pressure;BME280_temperature;BME280_humidity;BME280_pressure;Samples;Min_cycle;Max_cycle;Signal;HPM_P1;HPM_P2
2024/01/21 00:00:32;;;;;;;14.60;10.48;;;21.60;99.90;;;;;;4978078;28;20394;-53
2024/01/21 00:02:58;;;;;;;20.77;9.98;;;21.60;99.90;;;;;;4992884;28;20034;-53
2024/01/21 00:05:24;;;;;;;14.98;10.82;;;21.60;99.90;;;;;;4995644;28;20026;-53
2024/01/21 00:07:49;;;;;;;18.23;10.95;;;21.60;99.90;;;;;;4995101;28;20030;-54
2024/01/21 00:10:17;;;;;;;23.30;10.80;;;21.50;99.90;;;;;;4995060;28;20022;-52
2024/01/21 00:12:42;;;;;;;19.35;10.68;;;21.60;99.90;;;;;;4982093;28;20082;-54
2024/01/21 00:15:09;;;;;;;20.33;10.85;;;21.50;99.90;;;;;;4985640;28;20471;-53
2024/01/21 00:17:35;;;;;;;20.85;9.90;;;21.50;99.90;;;;;;4971078;28;20078;-54
2024/01/21 00:20:00;;;;;;;20.92;10.25;;;21.50;99.90;;;;;;4995191;28;20034;-55
2024/01/21 00:22:26;;;;;;;21.23;10.82;;;21.50;99.90;;;;;;4995230;28;20033;-55
2024/01/21 00:24:52;;;;;;;16.85;9.52;;;21.50;99.90;;;;;;4976797;28;20026;-53
2024/01/21 00:27:18;;;;;;;17.65;9.63;;;21.50;99.90;;;;;;4995030;28;20038;-53
2024/01/21 00:29:45;;;;;;;17.90;9.48;;;21.50;99.90;;;;;;4985902;28;20050;-52
2024/01/21 00:32:10;;;;;;;17.92;9.93;;;21.50;99.90;;;;;;4984426;28;20479;-52
2024/01/21 00:34:36;;;;;;;15.80;9.68;;;21.50;99.90;;;;;;4989607;28;20034;-54
2024/01/21 00:37:02;;;;;;;20.10;10.30;;;21.50;99.90;;;;;;4983768;28;20557;-54
2024/01/21 00:39:28;;;;;;;21.67;9.70;;;21.50;99.90;;;;;;4988385;28;20053;-52
2024/01/21 00:41:55;;;;;;;13.48;8.68;;;21.50;99.90;;;;;;4980267;28;20027;-52
2024/01/21 00:44:20;;;;;;;18.20;10.18;;;21.50;99.90;;;;;;4977626;28;20486;-52
2024/01/21 00:46:47;;;;;;;16.45;9.25;;;21.40;99.90;;;;;;4991288;28;20079;-51
2024/01/21 00:49:13;;;;;;;15.20;8.93;;;21.40;99.90;;;;;;4994163;28;20037;-52
2024/01/21 00:51:39;;;;;;;19.60;9.85;;;21.40;99.90;;;;;;4994398;28;20046;-52
2024/01/21 00:54:05;;;;;;;20.70;9.60;;;21.40;99.90;;;;;;4970999;28;20057;-53
2024/01/21 00:56:31;;;;;;;12.55;8.48;;;21.40;99.90;;;;;;4985815;28;20027;-53
2024/01/21 00:58:57;;;;;;;15.60;9.00;;;21.40;99.90;;;;;;4987394;28;20034;-54
2024/01/21 01:01:22;;;;;;;14.90;8.50;;;21.40;99.90;;;;;;4989782;28;20037;-53
2024/01/21 01:03:48;;;;;;;14.30;8.93;;;21.40;99.90;;;;;;4992763;28;20109;-53
2024/01/21 01:06:14;;;;;;;14.85;9.18;;;21.30;99.90;;;;;;4993786;28;20465;-52
2024/01/21 01:08:39;;;;;;;18.40;9.02;;;21.30;99.90;;;;;;4976777;28;20053;-53
2024/01/21 01:11:05;;;;;;;15.77;8.45;;;21.30;99.90;;;;;;4987384;28;20106;-52
2024/01/21 01:13:31;;;;;;;16.13;9.27;;;21.30;99.90;;;;;;4993771;28;20030;-54
2024/01/21 01:15:59;;;;;;;15.38;9.40;;;21.30;99.90;;;;;;4994046;28;20094;-54
2024/01/21 01:18:25;;;;;;;16.10;8.90;;;21.30;99.90;;;;;;4993651;28;20050;-54
2024/01/21 01:20:51;;;;;;;16.30;8.50;;;21.30;99.90;;;;;;4994190;28;20513;-53
2024/01/21 01:23:17;;;;;;;20.85;9.00;;;21.30;99.90;;;;;;4982780;28;20104;-53
2024/01/21 01:25:42;;;;;;;15.02;9.23;;;21.30;99.90;;;;;;4981915;28;20097;-53
2024/01/21 01:28:08;;;;;;;21.38;9.13;;;21.20;99.90;;;;;;4992008;28;20076;-52
2024/01/21 01:30:35;;;;;;;12.98;8.65;;;21.20;99.90;;;;;;4991616;28;20042;-52
2024/01/21 01:33:02;;;;;;;17.13;9.37;;;21.20;99.90;;;;;;4990970;28;20052;-50
2024/01/21 01:35:28;;;;;;;14.50;8.52;;;21.20;99.90;;;;;;4972444;28;20260;-53
2024/01/21 01:37:53;;;;;;;14.07;8.52;;;21.20;99.90;;;;;;4987524;28;20033;-53
2024/01/21 01:40:20;;;;;;;12.93;9.18;;;21.20;99.90;;;;;;4990033;28;20497;-54
2024/01/21 01:42:56;;;;;;;16.60;8.40;;;21.20;99.90;;;;;;4988845;28;20033;-53
2024/01/21 01:45:22;;;;;;;19.52;8.05;;;21.20;99.90;;;;;;4987447;28;20105;-52
2024/01/21 01:47:48;;;;;;;15.38;8.35;;;21.20;99.90;;;;;;4977001;28;20110;-52
2024/01/21 01:50:14;;;;;;;13.85;8.77;;;21.10;99.90;;;;;;4976452;28;20174;-53
2024/01/21 01:52:40;;;;;;;14.50;7.80;;;21.10;99.90;;;;;;4979571;28;20092;-53
2024/01/21 01:55:06;;;;;;;13.38;8.25;;;21.10;99.90;;;;;;4991279;28;20126;-53
2024/01/21 01:57:32;;;;;;;15.00;8.75;;;21.10;99.90;;;;;;4971780;28;20030;-53
2024/01/21 01:59:57;;;;;;;17.10;8.95;;;21.10;99.90;;;;;;4992518;28;20018;-53
2024/01/21 02:02:23;;;;;;;17.40;9.65;;;21.10;99.90;;;;;;5021082;23;20053;-57
2024/01/21 02:04:49;;;;;;;15.35;9.30;;;21.10;99.90;;;;;;5007839;28;20021;-55
2024/01/21 02:07:15;;;;;;;13.70;8.43;;;21.10;99.90;;;;;;5011763;28;20512;-55
2024/01/21 02:09:41;;;;;;;18.35;7.80;;;21.10;99.90;;;;;;5001457;28;20505;-54
2024/01/21 02:12:08;;;;;;;14.57;7.57;;;21.10;99.90;;;;;;5003261;28;20057;-54
2024/01/21 02:14:34;;;;;;;16.13;8.77;;;21.10;99.90;;;;;;4991615;28;20014;-54
2024/01/21 02:17:00;;;;;;;13.95;8.50;;;21.10;99.90;;;;;;5002998;28;20101;-54
2024/01/21 02:19:27;;;;;;;15.25;7.70;;;21.10;99.90;;;;;;5011923;28;20097;-54
2024/01/21 02:21:54;;;;;;;16.10;9.23;;;21.10;99.90;;;;;;5004535;28;20442;-54
2024/01/21 02:24:20;;;;;;;13.32;8.25;;;21.00;99.90;;;;;;5011553;28;20028;-55
2024/01/21 02:26:48;;;;;;;14.52;7.70;;;21.10;99.90;;;;;;4987318;28;20470;-54
2024/01/21 02:29:14;;;;;;;16.50;8.05;;;21.00;99.90;;;;;;5011559;28;20382;-53
2024/01/21 02:31:41;;;;;;;14.07;8.38;;;21.00;99.90;;;;;;4994688;28;20038;-53
2024/01/21 02:34:06;;;;;;;16.45;7.65;;;21.00;99.90;;;;;;5012083;28;20014;-53
2024/01/21 02:36:32;;;;;;;14.38;8.00;;;21.00;99.90;;;;;;5012098;28;20025;-53
2024/01/21 02:38:58;;;;;;;30.40;8.07;;;21.00;99.90;;;;;;5012117;28;20030;-55
2024/01/21 02:41:24;;;;;;;19.20;7.60;;;21.00;99.90;;;;;;5005156;28;20033;-55
2024/01/21 02:43:49;;;;;;;12.98;7.65;;;21.00;99.90;;;;;;4991532;28;20486;-54
2024/01/21 02:46:18;;;;;;;15.60;9.05;;;21.00;99.90;;;;;;5004292;28;20034;-55
2024/01/21 02:48:44;;;;;;;14.10;8.02;;;21.00;99.90;;;;;;4987108;28;20028;-53
2024/01/21 02:51:13;;;;;;;17.58;8.73;;;21.00;99.90;;;;;;5001653;28;20014;-54
2024/01/21 02:53:40;;;;;;;11.82;7.10;;;21.00;99.90;;;;;;5000909;28;20037;-54
2024/01/21 02:56:06;;;;;;;11.68;7.85;;;21.00;99.90;;;;;;4998552;28;20188;-54
2024/01/21 02:58:31;;;;;;;15.70;8.95;;;20.90;99.90;;;;;;5002070;28;20536;-53
2024/01/21 03:00:57;;;;;;;12.20;8.00;;;20.90;99.90;;;;;;5008511;28;20116;-54
2024/01/21 03:03:23;;;;;;;14.25;8.30;;;20.90;99.90;;;;;;5009440;28;20028;-53
2024/01/21 03:05:49;;;;;;;15.75;8.15;;;20.90;99.90;;;;;;5007857;28;20029;-54
2024/01/21 03:08:17;;;;;;;;;;;20.90;99.90;;;;;;5008149;28;20494;-54
2024/01/21 03:10:43;;;;;;;14.60;8.02;;;20.90;99.90;;;;;;5008245;28;19910;-55
2024/01/21 03:13:08;;;;;;;14.70;8.27;;;21.00;99.90;;;;;;4998986;28;20451;-54
2024/01/21 03:15:34;;;;;;;12.93;7.80;;;20.90;99.90;;;;;;5000189;28;20023;-54
2024/01/21 03:18:00;;;;;;;16.33;8.25;;;20.90;99.90;;;;;;4997634;28;20037;-53
2024/01/21 03:20:26;;;;;;;15.20;8.02;;;20.90;99.90;;;;;;4998196;28;20034;-55
2024/01/21 03:22:52;;;;;;;15.07;7.25;;;20.90;99.90;;;;;;4994496;28;20058;-53
2024/01/21 03:25:17;;;;;;;13.75;7.80;;;20.90;99.90;;;;;;5001562;28;20030;-56
2024/01/21 03:27:43;;;;;;;13.70;8.05;;;20.90;99.90;;;;;;5005642;28;20371;-55
2024/01/21 03:30:10;;;;;;;15.77;8.32;;;20.90;99.90;;;;;;5001381;28;20018;-54
2024/01/21 03:32:36;;;;;;;12.43;7.77;;;20.90;99.90;;;;;;5000571;28;20023;-54
2024/01/21 03:35:01;;;;;;;14.88;8.57;;;20.90;99.90;;;;;;4996915;28;20089;-53
2024/01/21 03:37:27;;;;;;;12.95;7.97;;;20.90;99.90;;;;;;5009716;28;20073;-55
2024/01/21 03:39:53;;;;;;;13.43;7.95;;;20.90;99.90;;;;;;5010146;28;20018;-55
2024/01/21 03:42:19;;;;;;;12.35;7.55;;;20.80;99.90;;;;;;5011408;28;20034;-55
2024/01/21 03:44:47;;;;;;;14.73;8.02;;;20.90;99.90;;;;;;5011445;28;20104;-55
2024/01/21 03:47:13;;;;;;;15.60;8.30;;;20.80;99.90;;;;;;5011453;28;20049;-55
2024/01/21 03:49:39;;;;;;;13.30;7.22;;;20.80;99.90;;;;;;5010553;28;20021;-55
2024/01/21 03:52:04;;;;;;;14.68;7.63;;;20.80;99.90;;;;;;5011554;28;20026;-55
2024/01/21 03:54:30;;;;;;;11.90;7.55;;;20.80;99.90;;;;;;5011198;28;20029;-55
2024/01/21 03:56:56;;;;;;;14.25;7.38;;;20.80;99.90;;;;;;5011468;28;20022;-55
2024/01/21 03:59:22;;;;;;;15.07;7.90;;;20.80;99.90;;;;;;5011488;28;20512;-55
2024/01/21 04:01:49;;;;;;;13.70;7.32;;;20.80;99.90;;;;;;5021317;23;20125;-51
2024/01/21 04:04:15;;;;;;;15.18;8.35;;;20.80;99.90;;;;;;5009701;28;20030;-52
2024/01/21 04:06:44;;;;;;;13.38;7.72;;;20.80;99.90;;;;;;5010448;28;20080;-54
2024/01/21 04:09:12;;;;;;;15.18;8.23;;;20.80;99.90;;;;;;5011575;28;20030;-54
2024/01/21 04:11:40;;;;;;;13.73;7.95;;;20.80;99.90;;;;;;5014070;28;20104;-53
2024/01/21 04:14:06;;;;;;;12.68;8.55;;;20.70;99.90;;;;;;5015025;28;20037;-55
2024/01/21 04:16:32;;;;;;;14.68;8.13;;;20.70;99.90;;;;;;5014991;28;20456;-55
2024/01/21 04:18:58;;;;;;;15.27;8.10;;;20.70;99.90;;;;;;5014706;28;20475;-55
2024/01/21 04:21:23;;;;;;;11.63;7.32;;;20.70;99.90;;;;;;5013876;28;20026;-54
2024/01/21 04:23:49;;;;;;;12.30;7.57;;;20.70;99.90;;;;;;5013521;28;20045;-55
2024/01/21 04:26:15;;;;;;;9.43;6.80;;;20.70;99.90;;;;;;5014231;28;20060;-54
2024/01/21 04:28:41;;;;;;;14.35;7.93;;;20.70;99.90;;;;;;5014775;28;20490;-52
2024/01/21 04:31:07;;;;;;;15.00;7.85;;;20.70;99.90;;;;;;5020908;28;20025;-55
2024/01/21 04:33:32;;;;;;;12.27;7.20;;;20.70;99.90;;;;;;5014102;28;20021;-54
2024/01/21 04:35:58;;;;;;;14.68;6.97;;;20.60;99.90;;;;;;5014789;28;20057;-54
2024/01/21 04:38:25;;;;;;;12.57;8.05;;;20.60;99.90;;;;;;5014268;28;20018;-54
2024/01/21 04:40:52;;;;;;;12.90;7.80;;;20.70;99.90;;;;;;4981110;28;20022;-54
2024/01/21 04:43:18;;;;;;;12.00;7.00;;;20.70;99.90;;;;;;4996966;28;20268;-54
2024/01/21 04:45:44;;;;;;;17.58;8.68;;;20.60;99.90;;;;;;5014150;28;20032;-55
2024/01/21 04:48:10;;;;;;;12.50;7.40;;;20.60;99.90;;;;;;4996627;28;20041;-53
2024/01/21 04:50:35;;;;;;;16.38;7.05;;;20.60;99.90;;;;;;5014458;28;20022;-53
2024/01/21 04:53:01;;;;;;;11.55;6.63;;;20.60;99.90;;;;;;5014504;28;20026;-54
2024/01/21 04:55:27;;;;;;;10.05;6.65;;;20.60;99.90;;;;;;5014259;28;20018;-54
2024/01/21 04:57:53;;;;;;;12.07;6.65;;;20.60;99.90;;;;;;5013986;28;20068;-54
2024/01/21 05:00:19;;;;;;;13.05;7.25;;;20.50;99.90;;;;;;5014376;28;20494;-55
2024/01/21 05:02:44;;;;;;;11.45;7.63;;;20.50;99.90;;;;;;5013962;28;20042;-54
2024/01/21 05:05:10;;;;;;;14.02;7.60;;;20.50;99.90;;;;;;5014028;28;20095;-55
2024/01/21 05:07:36;;;;;;;10.55;6.90;;;20.50;99.90;;;;;;5014409;28;20042;-54
2024/01/21 05:10:03;;;;;;;14.60;7.28;;;20.50;99.90;;;;;;5013753;28;20029;-54
2024/01/21 05:12:28;;;;;;;11.77;7.63;;;20.50;99.90;;;;;;4996580;28;20401;-54
2024/01/21 05:14:55;;;;;;;15.43;7.63;;;20.50;99.90;;;;;;5013759;28;20029;-54
2024/01/21 05:17:21;;;;;;;13.20;8.07;;;20.50;99.90;;;;;;5012716;28;20022;-55
2024/01/21 05:19:47;;;;;;;13.32;6.35;;;20.50;99.90;;;;;;5013148;28;20087;-54
2024/01/21 05:22:13;;;;;;;15.50;7.20;;;20.40;99.90;;;;;;5013956;28;20083;-54
2024/01/21 05:24:39;;;;;;;13.18;6.60;;;20.40;99.90;;;;;;5013372;28;20041;-54
2024/01/21 05:27:04;;;;;;;15.15;7.10;;;20.40;99.90;;;;;;5013885;28;20604;-54
2024/01/21 05:29:30;;;;;;;13.35;7.38;;;20.40;99.90;;;;;;5013388;28;20022;-54
2024/01/21 05:31:56;;;;;;;14.80;7.63;;;20.40;99.90;;;;;;5013647;28;20029;-54
2024/01/21 05:34:22;;;;;;;12.60;7.13;;;20.40;99.90;;;;;;5013625;28;20160;-54
2024/01/21 05:36:48;;;;;;;11.75;6.10;;;20.40;99.90;;;;;;5013050;28;20033;-54
2024/01/21 05:39:14;;;;;;;16.23;7.25;;;20.40;99.90;;;;;;5013642;28;20105;-53
2024/01/21 05:41:40;;;;;;;11.93;6.97;;;20.40;99.90;;;;;;5013160;28;20101;-54
2024/01/21 05:44:06;;;;;;;11.05;6.72;;;20.40;99.90;;;;;;4996047;28;20022;-54
2024/01/21 05:46:32;;;;;;;10.93;6.40;;;20.30;99.90;;;;;;4995907;28;20038;-53
2024/01/21 05:48:58;;;;;;;11.63;7.50;;;20.40;99.90;;;;;;4995294;28;20030;-54
2024/01/21 05:51:24;;;;;;;10.98;7.38;;;20.40;99.90;;;;;;5013280;28;20496;-54
2024/01/21 05:53:51;;;;;;;12.02;6.55;;;20.30;99.90;;;;;;4995244;28;20025;-54
2024/01/21 05:56:18;;;;;;;11.40;6.22;;;20.40;99.90;;;;;;5013451;28;20308;-54
2024/01/21 05:58:44;;;;;;;10.55;6.45;;;20.30;99.90;;;;;;5013211;28;20154;-54
2024/01/21 06:01:09;;;;;;;11.13;7.25;;;20.30;99.90;;;;;;4990384;28;20051;-54
2024/01/21 06:03:35;;;;;;;11.85;6.97;;;20.30;99.90;;;;;;4990792;28;20109;-54
2024/01/21 06:06:01;;;;;;;13.95;6.93;;;20.30;99.90;;;;;;5009978;28;20363;-54
2024/01/21 06:08:29;;;;;;;12.82;6.85;;;20.30;99.90;;;;;;5011204;28;20018;-54
2024/01/21 06:10:55;;;;;;;12.70;6.70;;;20.30;99.90;;;;;;5012279;28;20053;-54
2024/01/21 06:13:21;;;;;;;17.55;7.68;;;20.30;99.90;;;;;;4994622;28;20422;-54
2024/01/21 06:15:47;;;;;;;12.38;6.68;;;20.20;99.90;;;;;;5012881;28;20026;-55
2024/01/21 06:18:12;;;;;;;13.05;6.72;;;20.30;99.90;;;;;;5012222;28;20080;-54
2024/01/21 06:20:38;;;;;;;14.35;7.93;;;20.30;99.90;;;;;;5012883;28;20374;-54
2024/01/21 06:23:04;;;;;;;10.88;6.82;;;20.30;99.90;;;;;;5012623;28;20018;-54
2024/01/21 06:25:30;;;;;;;12.40;6.28;;;20.30;99.90;;;;;;5012648;28;20033;-54
2024/01/21 06:27:55;;;;;;;12.85;6.93;;;20.30;99.90;;;;;;5012746;28;20116;-55
2024/01/21 06:30:22;;;;;;;15.20;7.85;;;20.20;99.90;;;;;;5012003;28;20021;-55
2024/01/21 06:32:49;;;;;;;13.00;6.38;;;20.20;99.90;;;;;;5012304;28;20090;-55
2024/01/21 06:35:14;;;;;;;12.73;6.80;;;20.20;99.90;;;;;;5012067;28;20363;-53
2024/01/21 06:37:40;;;;;;;14.45;7.85;;;20.20;99.90;;;;;;5012466;28;20032;-55
2024/01/21 06:40:07;;;;;;;10.80;6.65;;;20.20;99.90;;;;;;5012597;28;20095;-56
2024/01/21 06:42:33;;;;;;;16.02;7.63;;;20.20;99.90;;;;;;5012112;28;20029;-54
2024/01/21 06:44:59;;;;;;;10.73;6.40;;;20.20;99.90;;;;;;5012440;28;20034;-54
2024/01/21 06:47:25;;;;;;;11.20;6.85;;;20.20;99.90;;;;;;5011732;28;20038;-53
2024/01/21 06:49:51;;;;;;;12.48;6.43;;;20.20;99.90;;;;;;4995021;28;20033;-55
2024/01/21 06:52:17;;;;;;;11.30;6.32;;;20.20;99.90;;;;;;5012256;28;20025;-54
2024/01/21 06:54:43;;;;;;;10.70;6.90;;;20.20;99.90;;;;;;5011784;28;20018;-54
2024/01/21 06:57:09;;;;;;;12.75;6.97;;;20.20;99.90;;;;;;5012172;28;20053;-54
2024/01/21 06:59:34;;;;;;;11.20;6.30;;;20.20;99.90;;;;;;5011796;28;20049;-54
2024/01/21 07:02:00;;;;;;;12.90;6.72;;;20.20;99.90;;;;;;5011987;28;20389;-53
2024/01/21 07:04:26;;;;;;;12.25;6.70;;;20.20;99.90;;;;;;4994552;28;20033;-53
2024/01/21 07:06:52;;;;;;;10.38;5.85;;;20.20;99.90;;;;;;5011722;28;20034;-54
2024/01/21 07:09:18;;;;;;;11.77;5.70;;;20.20;99.90;;;;;;5012167;28;20057;-55
2024/01/21 07:11:44;;;;;;;11.32;6.32;;;20.20;99.90;;;;;;5011605;28;20054;-54
2024/01/21 07:14:09;;;;;;;10.23;6.68;;;20.20;99.90;;;;;;5012197;28;20092;-55
2024/01/21 07:16:35;;;;;;;10.70;6.57;;;20.20;99.90;;;;;;5012236;28;20030;-54
2024/01/21 07:19:01;;;;;;;11.43;6.70;;;20.20;99.90;;;;;;5011737;28;20135;-53
2024/01/21 07:21:27;;;;;;;13.90;6.63;;;20.20;99.90;;;;;;5012078;28;20133;-53
2024/01/21 07:23:53;;;;;;;11.00;6.35;;;20.20;99.90;;;;;;5011576;28;20564;-54
2024/01/21 07:26:22;;;;;;;12.63;6.53;;;20.10;99.90;;;;;;5011909;28;20042;-54
2024/01/21 07:28:48;;;;;;;9.52;6.07;;;20.10;99.90;;;;;;5011385;28;20092;-54
2024/01/21 07:31:14;;;;;;;12.63;7.10;;;20.20;99.90;;;;;;5012160;28;20443;-54
2024/01/21 07:33:40;;;;;;;10.50;6.70;;;20.20;99.90;;;;;;5011829;28;20077;-55
2024/01/21 07:36:06;;;;;;;12.23;6.97;;;20.20;99.90;;;;;;5011716;28;20037;-54
2024/01/21 07:38:31;;;;;;;9.65;6.13;;;20.10;99.90;;;;;;5011921;28;20038;-54
2024/01/21 07:40:57;;;;;;;11.98;6.57;;;20.10;99.90;;;;;;5011338;28;20497;-54
2024/01/21 07:43:23;;;;;;;11.13;6.80;;;20.10;99.90;;;;;;5013068;28;20026;-55
2024/01/21 07:45:49;;;;;;;12.85;6.40;;;20.10;99.90;;;;;;5015926;28;20045;-54
2024/01/21 07:48:15;;;;;;;13.48;7.20;;;20.10;99.90;;;;;;5015306;28;20038;-55
2024/01/21 07:50:40;;;;;;;10.90;6.65;;;20.10;99.90;;;;;;5015606;28;20037;-54
2024/01/21 07:53:06;;;;;;;12.68;6.18;;;20.10;99.90;;;;;;5015240;28;20433;-54
2024/01/21 07:55:32;;;;;;;10.57;6.30;;;20.10;99.90;;;;;;5015718;28;20033;-54
2024/01/21 07:57:58;;;;;;;12.60;6.63;;;20.10;99.90;;;;;;5015610;28;20399;-54
2024/01/21 08:00:24;;;;;;;11.57;6.47;;;20.10;99.90;;;;;;4997695;28;20037;-55
2024/01/21 08:02:49;;;;;;;11.73;6.25;;;20.10;99.90;;;;;;5015641;28;20026;-54
2024/01/21 08:05:15;;;;;;;10.50;6.55;;;20.10;99.90;;;;;;5015001;28;20034;-55
2024/01/21 08:07:41;;;;;;;10.80;6.47;;;20.10;99.90;;;;;;5015561;28;20073;-54
2024/01/21 08:10:08;;;;;;;11.88;6.40;;;20.10;99.90;;;;;;5015656;28;20022;-54
2024/01/21 08:12:34;;;;;;;12.80;7.07;;;20.10;99.90;;;;;;5015149;28;20022;-54
2024/01/21 08:15:00;;;;;;;12.30;6.85;;;20.10;99.90;;;;;;5015261;28;20437;-54
2024/01/21 08:17:26;;;;;;;11.60;6.10;;;20.10;99.90;;;;;;5014767;28;20034;-55
2024/01/21 08:19:51;;;;;;;13.43;7.30;;;20.10;99.90;;;;;;5015713;28;20026;-53
2024/01/21 08:22:17;;;;;;;12.32;6.90;;;20.10;99.90;;;;;;5015120;28;20482;-53
2024/01/21 08:24:43;;;;;;;11.50;7.05;;;20.10;99.90;;;;;;5014469;28;20501;-55
2024/01/21 08:27:09;;;;;;;13.07;6.93;;;20.10;99.90;;;;;;5014880;28;20517;-54
2024/01/21 08:29:36;;;;;;;11.80;7.65;;;20.10;99.90;;;;;;5014829;28;20058;-54
2024/01/21 08:32:03;;;;;;;13.25;6.95;;;20.10;99.90;;;;;;5014842;28;20490;-54
2024/01/21 08:34:29;;;;;;;13.32;7.05;;;20.10;99.90;;;;;;5015060;28;20076;-54
2024/01/21 08:36:55;;;;;;;11.05;7.00;;;20.10;99.90;;;;;;5014299;28;20505;-54
2024/01/21 08:39:21;;;;;;;12.88;7.10;;;20.10;99.90;;;;;;5014718;28;20474;-54
2024/01/21 08:41:47;;;;;;;13.63;7.30;;;20.10;99.90;;;;;;5014290;28;20037;-55
2024/01/21 08:44:13;;;;;;;12.43;7.40;;;20.10;99.90;;;;;;5000899;28;20030;-55
2024/01/21 08:46:39;;;;;;;10.38;6.90;;;20.10;99.90;;;;;;4997238;28;20041;-54
2024/01/21 08:49:04;;;;;;;11.55;7.03;;;20.10;99.90;;;;;;5014276;28;20474;-54
2024/01/21 08:51:30;;;;;;;12.82;7.72;;;20.10;99.90;;;;;;5014678;28;20377;-54
2024/01/21 08:53:56;;;;;;;13.95;7.75;;;20.20;99.90;;;;;;4996414;28;20030;-54
2024/01/21 08:56:25;;;;;;;12.25;7.55;;;20.10;99.90;;;;;;5013964;28;20037;-54
2024/01/21 08:58:52;;;;;;;14.80;8.73;;;20.10;99.90;;;;;;5013931;28;20033;-54
2024/01/21 09:01:18;;;;;;;13.73;7.97;;;20.20;99.90;;;;;;5014157;28;20125;-54
2024/01/21 09:03:44;;;;;;;15.98;9.00;;;20.20;99.90;;;;;;5014523;28;20030;-53
2024/01/21 09:06:11;;;;;;;12.98;8.10;;;20.20;99.90;;;;;;5013758;28;20033;-54
2024/01/21 09:08:36;;;;;;;14.88;8.38;;;20.20;99.90;;;;;;5014446;28;20062;-53
2024/01/21 09:11:02;;;;;;;16.48;8.63;;;20.30;99.90;;;;;;5013817;28;20516;-53
2024/01/21 09:13:28;;;;;;;14.23;8.48;;;20.30;99.90;;;;;;5013982;28;20028;-53
2024/01/21 09:15:55;;;;;;;12.90;7.90;;;20.30;99.90;;;;;;5014063;28;20022;-53
2024/01/21 09:18:22;;;;;;;14.57;8.30;;;20.30;99.90;;;;;;5013386;28;20014;-53
2024/01/21 09:20:48;;;;;;;15.20;9.23;;;20.30;99.90;;;;;;5014073;28;20049;-53
2024/01/21 09:23:14;;;;;;;14.02;8.32;;;20.30;99.90;;;;;;5013334;28;20480;-53
2024/01/21 09:25:40;;;;;;;14.60;8.40;;;20.40;99.90;;;;;;4996468;28;20054;-54
2024/01/21 09:28:06;;;;;;;15.63;8.90;;;20.40;99.90;;;;;;5013980;28;20038;-54
2024/01/21 09:30:32;;;;;;;13.65;8.35;;;20.40;99.90;;;;;;5013242;28;20022;-53
2024/01/21 09:32:58;;;;;;;17.75;9.38;;;20.40;99.90;;;;;;5013820;28;20022;-53
2024/01/21 09:35:24;;;;;;;15.93;9.55;;;20.40;99.90;;;;;;5013177;28;20101;-53
2024/01/21 09:37:50;;;;;;;14.98;9.35;;;20.40;99.90;;;;;;5013664;28;20141;-53
2024/01/21 09:40:16;;;;;;;12.32;8.88;;;20.40;99.90;;;;;;5013572;28;20032;-54
2024/01/21 09:42:42;;;;;;;16.17;9.13;;;20.40;99.90;;;;;;5013211;28;20505;-55
2024/01/21 09:45:10;;;;;;;14.38;8.82;;;20.50;99.90;;;;;;5013756;28;20560;-53
2024/01/21 09:47:38;;;;;;;15.18;9.18;;;20.50;99.90;;;;;;5012965;28;20501;-54
2024/01/21 09:50:04;;;;;;;15.95;9.73;;;20.50;99.90;;;;;;5013585;28;20018;-53
2024/01/21 09:52:30;;;;;;;16.00;9.77;;;20.50;99.90;;;;;;5013349;28;20038;-53
2024/01/21 09:54:56;;;;;;;12.93;8.40;;;20.50;99.90;;;;;;5012879;28;20038;-53
2024/01/21 09:57:22;;;;;;;14.00;9.52;;;20.50;99.90;;;;;;5027222;28;20079;-53
2024/01/21 09:59:48;;;;;;;10.75;7.80;;;20.50;99.90;;;;;;5012693;28;20491;-53
2024/01/21 10:02:18;;;;;;;14.27;9.07;;;20.60;99.90;;;;;;5013080;28;20049;-54
2024/01/21 10:04:47;;;;;;;16.45;9.80;;;20.60;99.90;;;;;;5013269;28;20370;-54
2024/01/21 10:07:13;;;;;;;14.40;9.35;;;20.60;99.90;;;;;;5012210;28;20395;-54
2024/01/21 10:09:40;;;;;;;15.02;9.50;;;20.60;99.90;;;;;;5013008;28;20021;-53
2024/01/21 10:12:07;;;;;;;13.10;9.13;;;20.60;99.90;;;;;;5012681;28;20029;-53
2024/01/21 10:14:33;;;;;;;13.18;8.32;;;20.60;99.90;;;;;;5012933;28;20029;-54
2024/01/21 10:17:00;;;;;;;15.38;9.25;;;20.60;99.90;;;;;;5012404;28;20030;-54
2024/01/21 10:19:28;;;;;;;16.75;9.02;;;20.60;99.90;;;;;;5012978;28;20032;-55
2024/01/21 10:22:10;;;;;;;12.90;8.45;;;20.60;99.90;;;;;;5012854;28;20406;-55
2024/01/21 10:24:44;;;;;;;12.93;9.30;;;20.70;99.90;;;;;;5012653;28;20029;-54
2024/01/21 10:27:10;;;;;;;13.05;8.35;;;20.70;99.90;;;;;;4995100;28;20034;-54
2024/01/21 10:29:39;;;;;;;15.07;8.52;;;20.70;99.90;;;;;;5012479;28;20049;-54
2024/01/21 10:32:05;;;;;;;15.18;9.48;;;20.80;99.90;;;;;;5012906;28;20026;-53
2024/01/21 10:34:31;;;;;;;11.70;7.73;;;20.70;99.90;;;;;;5012754;28;20057;-54
2024/01/21 10:37:04;;;;;;;14.35;8.43;;;20.80;99.90;;;;;;5012039;28;20064;-54
2024/01/21 10:39:34;;;;;;;12.70;8.48;;;20.80;99.90;;;;;;4995084;28;20026;-54
2024/01/21 10:42:00;;;;;;;13.48;9.05;;;20.80;99.90;;;;;;4994182;28;20367;-54
2024/01/21 10:44:27;;;;;;;15.90;9.20;;;20.80;99.90;;;;;;5012581;28;20033;-54
2024/01/21 10:46:55;;;;;;;15.48;9.10;;;20.80;99.90;;;;;;5011956;28;20038;-55
2024/01/21 10:49:21;;;;;;;15.13;9.15;;;20.90;99.90;;;;;;4999105;28;20022;-53
2024/01/21 10:51:51;;;;;;;14.75;8.75;;;20.90;99.90;;;;;;5012472;28;20121;-54
2024/01/21 10:54:16;;;;;;;13.63;8.75;;;20.90;99.90;;;;;;5011715;28;20018;-53
2024/01/21 10:56:43;;;;;;;13.65;8.93;;;20.90;99.90;;;;;;4994960;28;20021;-55
2024/01/21 10:59:13;;;;;;;14.90;8.82;;;21.00;99.90;;;;;;5011582;28;20018;-54
2024/01/21 11:01:43;;;;;;;12.07;8.38;;;21.00;99.90;;;;;;4995125;28;20046;-54
2024/01/21 11:04:12;;;;;;;15.38;9.10;;;21.00;99.90;;;;;;5012432;28;20386;-55
2024/01/21 11:06:48;;;;;;;15.98;8.73;;;21.10;99.90;;;;;;4994266;28;20022;-55
2024/01/21 11:09:26;;;;;;;11.48;7.90;;;21.20;99.90;;;;;;5012312;28;20065;-55
2024/01/21 11:11:53;;;;;;;14.45;8.30;;;21.20;99.90;;;;;;5011343;28;20541;-54
2024/01/21 11:14:35;;;;;;;14.75;8.75;;;21.30;99.90;;;;;;5003741;28;20029;-54
2024/01/21 11:17:10;;;;;;;13.35;8.93;;;21.30;99.90;;;;;;5010415;28;20022;-54
2024/01/21 11:19:48;;;;;;;11.88;8.65;;;21.40;99.90;;;;;;4994528;28;20038;-54
2024/01/21 11:22:14;;;;;;;16.80;8.18;;;21.40;99.90;;;;;;5002718;28;20088;-54
2024/01/21 11:24:41;;;;;;;15.02;8.90;;;21.50;99.90;;;;;;5011551;28;20034;-54
2024/01/21 11:27:18;;;;;;;13.35;8.13;;;21.50;99.90;;;;;;5011777;28;20072;-54
2024/01/21 11:29:44;;;;;;;16.38;8.65;;;21.50;99.90;;;;;;5011173;28;20045;-53
2024/01/21 11:32:11;;;;;;;13.05;8.07;;;21.60;99.90;;;;;;5011692;28;20478;-55
2024/01/21 11:34:45;;;;;;;16.73;8.52;;;21.70;99.90;;;;;;5005281;28;20105;-55
2024/01/21 11:37:13;;;;;;;11.90;5.60;;;21.70;99.90;;;;;;4994225;28;20034;-53
2024/01/21 11:39:53;;;;;;;13.85;5.63;;;21.70;99.90;;;;;;4993997;28;20021;-52
2024/01/21 11:42:19;;;;;;;10.48;4.78;;;21.80;99.90;;;;;;4993388;28;20105;-51
2024/01/21 11:44:45;;;;;;;10.93;4.45;;;21.80;99.90;;;;;;5011651;28;20058;-52
2024/01/21 11:47:11;;;;;;;8.02;3.65;;;21.90;99.90;;;;;;5010762;28;20042;-52
2024/01/21 11:49:37;;;;;;;7.88;3.90;;;21.90;99.90;;;;;;5011953;28;20076;-53
2024/01/21 11:52:05;;;;;;;11.63;4.70;;;21.90;99.90;;;;;;5011408;28;20033;-52
2024/01/21 11:54:32;;;;;;;13.77;4.57;;;21.90;99.90;;;;;;5011135;28;20022;-52
2024/01/21 11:56:58;;;;;;;10.10;3.70;;;22.00;99.90;;;;;;5011720;28;20498;-52
2024/01/21 11:59:25;;;;;;;8.48;2.88;;;22.00;99.90;;;;;;5011172;28;20363;-52
2024/01/21 12:01:55;;;;;;;19.00;3.40;;;22.00;99.90;;;;;;5011581;28;20050;-53
2024/01/21 12:04:22;;;;;;;7.47;1.80;;;22.00;99.90;;;;;;5004835;28;20492;-53
2024/01/21 12:06:49;;;;;;;8.48;2.10;;;22.00;99.90;;;;;;5010966;28;20057;-52
2024/01/21 12:09:15;;;;;;;7.97;2.10;;;22.00;99.90;;;;;;5011491;28;20032;-55
2024/01/21 12:11:42;;;;;;;10.90;2.03;;;22.00;99.90;;;;;;5012067;28;20059;-54
2024/01/21 12:14:10;;;;;;;13.82;2.17;;;22.00;99.90;;;;;;5014266;28;20026;-54
2024/01/21 12:16:35;;;;;;;;;;;22.00;99.90;;;;;;5011432;28;20029;-53
2024/01/21 12:19:02;;;;;;;6.47;2.90;;;22.10;99.90;;;;;;5010872;28;20350;-53
2024/01/21 12:21:30;;;;;;;11.32;2.95;;;22.10;99.90;;;;;;4988916;28;20527;-54
2024/01/21 12:23:58;;;;;;;10.70;3.67;;;22.10;99.90;;;;;;5011518;28;20018;-55
2024/01/21 12:26:24;;;;;;;8.45;3.65;;;22.10;99.90;;;;;;5011376;28;20022;-54
2024/01/21 12:29:04;;;;;;;12.93;3.75;;;22.20;99.90;;;;;;5011004;28;20446;-55
2024/01/21 12:31:32;;;;;;;7.28;3.40;;;22.20;99.90;;;;;;5009778;28;20113;-55
2024/01/21 12:33:59;;;;;;;12.82;4.55;;;22.20;99.90;;;;;;5013680;28;20030;-54